sensor_id;sensor_type;location;lat;lon;timestamp;pressure;altitude;pressure_sealevel;temperature;humidity
60897;BME280;46749;32.932;-117.130;2023-02-20T00:01:24;101402.09;;;15.83;47.98
60897;BME280;46749;32.932;-117.130;2023-02-20T00:03:51;101402.94;;;15.82;47.98
60897;BME280;46749;32.932;-117.130;2023-02-20T00:06:17;101409.94;;;15.83;47.80
60897;BME280;46749;32.932;-117.130;2023-02-20T00:08:43;101402.94;;;15.82;47.91
60897;BME280;46749;32.932;-117.130;2023-02-20T00:11:10;101405.59;;;15.84;47.80
60897;BME280;46749;32.932;-117.130;2023-02-20T00:13:36;101406.50;;;15.84;48.10
60897;BME280;46749;32.932;-117.130;2023-02-20T00:16:03;101417.00;;;15.84;47.89
60897;BME280;46749;32.932;-117.130;2023-02-20T00:18:29;101409.13;;;15.84;48.35
60897;BME280;46749;32.932;-117.130;2023-02-20T00:20:55;101396.91;;;15.85;47.80
60897;BME280;46749;32.932;-117.130;2023-02-20T00:23:21;101391.69;;;15.85;47.83
60897;BME280;46749;32.932;-117.130;2023-02-20T00:25:47;101391.69;;;15.85;47.78
60897;BME280;46749;32.932;-117.130;2023-02-20T00:28:14;101386.44;;;15.85;47.85
60897;BME280;46749;32.932;-117.130;2023-02-20T00:30:40;101397.81;;;15.85;47.77
60897;BME280;46749;32.932;-117.130;2023-02-20T00:33:06;101397.81;;;15.85;47.79
60897;BME280;46749;32.932;-117.130;2023-02-20T00:35:32;101389.94;;;15.85;47.78
60897;BME280;46749;32.932;-117.130;2023-02-20T00:37:59;101396.06;;;15.86;47.86
60897;BME280;46749;32.932;-117.130;2023-02-20T00:40:25;101396.94;;;15.86;47.91
60897;BME280;46749;32.932;-117.130;2023-02-20T00:42:52;101398.69;;;15.86;47.91
60897;BME280;46749;32.932;-117.130;2023-02-20T00:45:18;101396.06;;;15.86;48.13
60897;BME280;46749;32.932;-117.130;2023-02-20T00:47:44;101394.31;;;15.86;48.05
60897;BME280;46749;32.932;-117.130;2023-02-20T00:50:13;101395.19;;;15.85;47.82
60897;BME280;46749;32.932;-117.130;2023-02-20T00:52:40;101393.44;;;15.86;47.92
60897;BME280;46749;32.932;-117.130;2023-02-20T00:55:06;101400.44;;;15.87;47.99
60897;BME280;46749;32.932;-117.130;2023-02-20T00:57:32;101394.31;;;15.86;47.75
60897;BME280;46749;32.932;-117.130;2023-02-20T00:59:59;101393.44;;;15.86;48.03
60897;BME280;46749;32.932;-117.130;2023-02-20T01:02:25;101388.22;;;15.86;48.03
60897;BME280;46749;32.932;-117.130;2023-02-20T01:04:51;101388.22;;;15.86;48.05
60897;BME280;46749;32.932;-117.130;2023-02-20T01:07:18;101394.31;;;15.86;47.83
60897;BME280;46749;32.932;-117.130;2023-02-20T01:09:44;101394.31;;;15.86;47.80
60897;BME280;46749;32.932;-117.130;2023-02-20T01:12:10;101394.31;;;15.86;48.06
60897;BME280;46749;32.932;-117.130;2023-02-20T01:14:37;101396.94;;;15.86;47.89
60897;BME280;46749;32.932;-117.130;2023-02-20T01:17:03;101396.06;;;15.86;47.89
60897;BME280;46749;32.932;-117.130;2023-02-20T01:19:29;101401.34;;;15.87;47.98
60897;BME280;46749;32.932;-117.130;2023-02-20T01:21:55;101389.09;;;15.86;47.87
60897;BME280;46749;32.932;-117.130;2023-02-20T01:24:22;101387.34;;;15.87;48.35
60897;BME280;46749;32.932;-117.130;2023-02-20T01:26:48;101396.06;;;15.86;47.93
60897;BME280;46749;32.932;-117.130;2023-02-20T01:29:16;101410.94;;;15.87;47.77
60897;BME280;46749;32.932;-117.130;2023-02-20T01:31:49;101414.44;;;15.87;48.03
60897;BME280;46749;32.932;-117.130;2023-02-20T01:34:17;101419.75;;;15.90;47.98
60897;BME280;46749;32.932;-117.130;2023-02-20T01:36:52;101412.81;;;15.93;48.12
60897;BME280;46749;32.932;-117.130;2023-02-20T01:39:20;101403.25;;;15.95;48.01
60897;BME280;46749;32.932;-117.130;2023-02-20T01:41:48;101403.34;;;15.98;48.09
60897;BME280;46749;32.932;-117.130;2023-02-20T01:44:24;101409.50;;;16.00;48.36
60897;BME280;46749;32.932;-117.130;2023-02-20T01:46:53;101418.28;;;16.02;48.51
60897;BME280;46749;32.932;-117.130;2023-02-20T01:49:33;101429.66;;;16.02;48.63
60897;BME280;46749;32.932;-117.130;2023-02-20T01:52:30;101433.16;;;16.03;48.76
60897;BME280;46749;32.932;-117.130;2023-02-20T01:55:10;101424.47;;;16.04;48.75
60897;BME280;46749;32.932;-117.130;2023-02-20T01:57:41;101432.31;;;16.04;48.68
60897;BME280;46749;32.932;-117.130;2023-02-20T02:00:13;101442.81;;;16.04;48.63
60897;BME280;46749;32.932;-117.130;2023-02-20T02:02:45;101441.00;;;16.03;48.75
60897;BME280;46749;32.932;-117.130;2023-02-20T02:05:13;101442.81;;;16.04;48.47
60897;BME280;46749;32.932;-117.130;2023-02-20T02:07:41;101443.63;;;16.03;48.50
60897;BME280;46749;32.932;-117.130;2023-02-20T02:10:11;101451.50;;;16.03;48.55
60897;BME280;46749;32.932;-117.130;2023-02-20T02:12:39;101445.38;;;16.02;48.55
60897;BME280;46749;32.932;-117.130;2023-02-20T02:15:17;101456.69;;;16.01;48.42
60897;BME280;46749;32.932;-117.130;2023-02-20T02:34:33;101497.84;;;16.04;48.34
60897;BME280;46749;32.932;-117.130;2023-02-20T02:37:17;101501.38;;;16.06;48.40
60897;BME280;46749;32.932;-117.130;2023-02-20T02:50:28;101504.03;;;16.07;48.78
60897;BME280;46749;32.932;-117.130;2023-02-20T02:52:57;101506.59;;;16.06;48.87
60897;BME280;46749;32.932;-117.130;2023-02-20T02:55:26;101510.09;;;16.05;48.93
60897;BME280;46749;32.932;-117.130;2023-02-20T02:57:54;101514.47;;;16.06;48.84
60897;BME280;46749;32.932;-117.130;2023-02-20T03:05:22;101517.97;;;16.06;48.70
60897;BME280;46749;32.932;-117.130;2023-02-20T03:07:53;101519.75;;;16.07;48.72
60897;BME280;46749;32.932;-117.130;2023-02-20T03:10:23;101514.50;;;16.07;48.95
60897;BME280;46749;32.932;-117.130;2023-02-20T03:13:01;101508.41;;;16.08;48.71
60897;BME280;46749;32.932;-117.130;2023-02-20T03:15:38;101520.69;;;16.09;48.85
60897;BME280;46749;32.932;-117.130;2023-02-20T03:18:33;101519.78;;;16.09;48.93
60897;BME280;46749;32.932;-117.130;2023-02-20T03:21:08;101517.16;;;16.09;48.66
60897;BME280;46749;32.932;-117.130;2023-02-20T03:23:40;101521.50;;;16.08;48.77
60897;BME280;46749;32.932;-117.130;2023-02-20T03:26:14;101511.03;;;16.08;49.06
60897;BME280;46749;32.932;-117.130;2023-02-20T03:28:58;101515.38;;;16.08;48.87
60897;BME280;46749;32.932;-117.130;2023-02-20T03:31:49;101513.59;;;16.05;48.90
60897;BME280;46749;32.932;-117.130;2023-02-20T03:34:37;101524.09;;;16.07;48.79
60897;BME280;46749;32.932;-117.130;2023-02-20T03:37:25;101518.84;;;16.07;48.89
60897;BME280;46749;32.932;-117.130;2023-02-20T03:40:12;101523.22;;;16.06;48.83
60897;BME280;46749;32.932;-117.130;2023-02-20T03:43:02;101523.19;;;16.05;48.66
60897;BME280;46749;32.932;-117.130;2023-02-20T03:45:51;101515.31;;;16.05;48.80
60897;BME280;46749;32.932;-117.130;2023-02-20T03:48:35;101515.31;;;16.05;49.02
60897;BME280;46749;32.932;-117.130;2023-02-20T03:51:05;101513.56;;;16.04;48.62
60897;BME280;46749;32.932;-117.130;2023-02-20T03:53:39;101512.66;;;16.03;48.83
60897;BME280;46749;32.932;-117.130;2023-02-20T03:56:18;101512.66;;;16.03;48.72
60897;BME280;46749;32.932;-117.130;2023-02-20T03:59:00;101514.38;;;16.03;48.79
60897;BME280;46749;32.932;-117.130;2023-02-20T04:01:27;101522.22;;;16.03;48.64
60897;BME280;46749;32.932;-117.130;2023-02-20T04:03:55;101514.38;;;16.03;48.58
60897;BME280;46749;32.932;-117.130;2023-02-20T04:06:27;101509.13;;;16.03;48.74
60897;BME280;46749;32.932;-117.130;2023-02-20T04:09:05;101504.75;;;16.02;48.77
60897;BME280;46749;32.932;-117.130;2023-02-20T04:12:04;101503.06;;;16.04;48.58
60897;BME280;46749;32.932;-117.130;2023-02-20T04:14:33;101504.88;;;16.06;48.73
60897;BME280;46749;32.932;-117.130;2023-02-20T04:17:04;101506.69;;;16.09;48.76
60897;BME280;46749;32.932;-117.130;2023-02-20T04:19:33;101516.34;;;16.10;49.12
60897;BME280;46749;32.932;-117.130;2023-02-20T04:22:02;101508.47;;;16.10;49.07
60897;BME280;46749;32.932;-117.130;2023-02-20T04:24:35;101505.84;;;16.10;49.26
60897;BME280;46749;32.932;-117.130;2023-02-20T04:27:05;101508.47;;;16.10;49.44
60897;BME280;46749;32.932;-117.130;2023-02-20T04:29:31;101515.53;;;16.14;49.24
60897;BME280;46749;32.932;-117.130;2023-02-20T04:31:57;101521.75;;;16.16;49.03
60897;BME280;46749;32.932;-117.130;2023-02-20T04:34:24;101522.56;;;16.15;49.35
60897;BME280;46749;32.932;-117.130;2023-02-20T04:37:01;101521.66;;;16.13;49.24
60897;BME280;46749;32.932;-117.130;2023-02-20T04:39:29;101515.53;;;16.14;49.45
60897;BME280;46749;32.932;-117.130;2023-02-20T04:41:56;101521.66;;;16.13;49.25
60897;BME280;46749;32.932;-117.130;2023-02-20T04:44:22;101526.88;;;16.13;49.68
60897;BME280;46749;32.932;-117.130;2023-02-20T04:47:05;101526.03;;;16.14;49.34
60897;BME280;46749;32.932;-117.130;2023-02-20T04:49:32;101517.31;;;16.15;49.46
60897;BME280;46749;32.932;-117.130;2023-02-20T04:51:59;101510.31;;;16.14;49.67
60897;BME280;46749;32.932;-117.130;2023-02-20T04:54:25;101510.31;;;16.14;49.52
60897;BME280;46749;32.932;-117.130;2023-02-20T04:56:52;101513.88;;;16.16;49.64
60897;BME280;46749;32.932;-117.130;2023-02-20T04:59:18;101519.13;;;16.16;49.64
60897;BME280;46749;32.932;-117.130;2023-02-20T05:01:45;101517.31;;;16.15;49.62
60897;BME280;46749;32.932;-117.130;2023-02-20T05:04:20;101520.00;;;16.16;49.58
60897;BME280;46749;32.932;-117.130;2023-02-20T05:06:50;101513.88;;;16.16;49.50
60897;BME280;46749;32.932;-117.130;2023-02-20T05:09:17;101520.00;;;16.16;49.78
60897;BME280;46749;32.932;-117.130;2023-02-20T05:11:44;101522.63;;;16.16;49.71
60897;BME280;46749;32.932;-117.130;2023-02-20T05:14:10;101523.47;;;16.15;49.82
60897;BME280;46749;32.932;-117.130;2023-02-20T05:16:38;101528.75;;;16.17;49.50
60897;BME280;46749;32.932;-117.130;2023-02-20T05:19:05;101528.75;;;16.17;49.71
60897;BME280;46749;32.932;-117.130;2023-02-20T05:21:32;101538.38;;;16.18;49.75
60897;BME280;46749;32.932;-117.130;2023-02-20T05:24:16;101548.00;;;16.19;49.57
60897;BME280;46749;32.932;-117.130;2023-02-20T05:26:43;101546.25;;;16.18;49.77
60897;BME280;46749;32.932;-117.130;2023-02-20T05:29:09;101548.88;;;16.18;49.83
60897;BME280;46749;32.932;-117.130;2023-02-20T05:31:40;101542.75;;;16.17;49.65
60897;BME280;46749;32.932;-117.130;2023-02-20T05:34:07;101547.13;;;16.18;50.02
60897;BME280;46749;32.932;-117.130;2023-02-20T05:36:34;101551.50;;;16.19;49.63
60897;BME280;46749;32.932;-117.130;2023-02-20T05:39:01;101562.88;;;16.20;49.63
60897;BME280;46749;32.932;-117.130;2023-02-20T05:41:27;101573.38;;;16.20;49.55
60897;BME280;46749;32.932;-117.130;2023-02-20T05:43:54;101573.38;;;16.20;49.88
60897;BME280;46749;32.932;-117.130;2023-02-20T05:46:23;101589.09;;;16.20;49.65
60897;BME280;46749;32.932;-117.130;2023-02-20T05:48:51;101587.31;;;16.19;49.75
60897;BME280;46749;32.932;-117.130;2023-02-20T05:51:26;101596.94;;;16.18;49.58
60897;BME280;46749;32.932;-117.130;2023-02-20T05:53:52;101608.28;;;16.19;49.62
60897;BME280;46749;32.932;-117.130;2023-02-20T05:56:19;101614.38;;;16.18;49.79
60897;BME280;46749;32.932;-117.130;2023-02-20T05:58:46;101625.72;;;16.17;49.54
60897;BME280;46749;32.932;-117.130;2023-02-20T06:01:23;101637.88;;;16.15;49.56
60897;BME280;46749;32.932;-117.130;2023-02-20T06:03:50;101632.63;;;16.15;49.59
60897;BME280;46749;32.932;-117.130;2023-02-20T06:06:17;101636.09;;;16.14;49.72
60897;BME280;46749;32.932;-117.130;2023-02-20T06:08:44;101636.09;;;16.14;49.71
60897;BME280;46749;32.932;-117.130;2023-02-20T06:11:11;101641.34;;;16.14;49.71
60897;BME280;46749;32.932;-117.130;2023-02-20T06:13:42;101650.06;;;16.13;49.46
60897;BME280;46749;32.932;-117.130;2023-02-20T06:16:09;101648.31;;;16.13;49.58
60897;BME280;46749;32.932;-117.130;2023-02-20T06:18:42;101642.16;;;16.11;49.64
60897;BME280;46749;32.932;-117.130;2023-02-20T06:21:10;101640.41;;;16.12;49.51
60897;BME280;46749;32.932;-117.130;2023-02-20T06:23:37;101636.03;;;16.11;49.68
60897;BME280;46749;32.932;-117.130;2023-02-20T06:26:05;101633.38;;;16.09;49.59
60897;BME280;46749;32.932;-117.130;2023-02-20T06:28:51;101628.13;;;16.09;49.53
60897;BME280;46749;32.932;-117.130;2023-02-20T06:31:24;101633.31;;;16.08;49.59
60897;BME280;46749;32.932;-117.130;2023-02-20T06:33:51;101625.44;;;16.08;49.66
60897;BME280;46749;32.932;-117.130;2023-02-20T06:36:28;101630.69;;;16.08;49.47
60897;BME280;46749;32.932;-117.130;2023-02-20T06:38:55;101605.34;;;16.07;49.35
60897;BME280;46749;32.932;-117.130;2023-02-20T06:41:22;101624.53;;;16.06;49.35
60897;BME280;46749;32.932;-117.130;2023-02-20T06:43:48;101608.78;;;16.04;49.45
60897;BME280;46749;32.932;-117.130;2023-02-20T06:46:14;101609.66;;;16.05;49.46
60897;BME280;46749;32.932;-117.130;2023-02-20T06:48:45;101607.00;;;16.03;49.55
60897;BME280;46749;32.932;-117.130;2023-02-20T06:51:12;101602.63;;;16.04;49.40
60897;BME280;46749;32.932;-117.130;2023-02-20T06:53:38;101617.47;;;16.03;49.38
60897;BME280;46749;32.932;-117.130;2023-02-20T06:56:09;101613.06;;;16.02;49.26
60897;BME280;46749;32.932;-117.130;2023-02-20T06:58:39;101604.31;;;16.02;49.46
60897;BME280;46749;32.932;-117.130;2023-02-20T07:01:08;101617.41;;;16.02;49.29
60897;BME280;46749;32.932;-117.130;2023-02-20T07:03:35;101614.75;;;16.00;49.38
60897;BME280;46749;32.932;-117.130;2023-02-20T07:06:02;101615.63;;;16.01;49.26
60897;BME280;46749;32.932;-117.130;2023-02-20T07:08:28;101611.25;;;16.00;49.39
60897;BME280;46749;32.932;-117.130;2023-02-20T07:10:54;101608.63;;;16.00;49.49
60897;BME280;46749;32.932;-117.130;2023-02-20T07:13:21;101617.34;;;15.99;49.45
60897;BME280;46749;32.932;-117.130;2023-02-20T07:15:48;101619.06;;;15.98;49.38
60897;BME280;46749;32.932;-117.130;2023-02-20T07:18:15;101623.44;;;15.98;49.42
60897;BME280;46749;32.932;-117.130;2023-02-20T07:20:42;101625.09;;;15.96;49.34
60897;BME280;46749;32.932;-117.130;2023-02-20T07:23:09;101618.09;;;15.95;49.26
60897;BME280;46749;32.932;-117.130;2023-02-20T07:25:35;101620.69;;;15.95;49.23
60897;BME280;46749;32.932;-117.130;2023-02-20T07:28:01;101626.81;;;15.95;49.54
60897;BME280;46749;32.932;-117.130;2023-02-20T07:30:28;101620.69;;;15.95;49.42
60897;BME280;46749;32.932;-117.130;2023-02-20T07:32:54;101618.94;;;15.94;49.33
60897;BME280;46749;32.932;-117.130;2023-02-20T07:35:20;101615.44;;;15.93;49.59
60897;BME280;46749;32.932;-117.130;2023-02-20T07:37:46;101616.31;;;15.94;49.41
60897;BME280;46749;32.932;-117.130;2023-02-20T07:40:12;101618.00;;;15.91;49.40
60897;BME280;46749;32.932;-117.130;2023-02-20T07:42:39;101628.50;;;15.91;49.25
60897;BME280;46749;32.932;-117.130;2023-02-20T07:45:05;101614.50;;;15.91;49.50
60897;BME280;46749;32.932;-117.130;2023-02-20T07:47:31;101625.81;;;15.90;49.49
60897;BME280;46749;32.932;-117.130;2023-02-20T07:49:58;101627.53;;;15.89;49.58
60897;BME280;46749;32.932;-117.130;2023-02-20T07:52:24;101641.47;;;15.88;49.44
60897;BME280;46749;32.932;-117.130;2023-02-20T07:54:50;101619.63;;;15.88;49.39
60897;BME280;46749;32.932;-117.130;2023-02-20T07:57:16;101612.63;;;15.87;49.48
60897;BME280;46749;32.932;-117.130;2023-02-20T07:59:43;101609.13;;;15.86;49.49
60897;BME280;46749;32.932;-117.130;2023-02-20T08:02:09;101614.38;;;15.86;49.38
60897;BME280;46749;32.932;-117.130;2023-02-20T08:04:35;101621.31;;;15.84;49.40
60897;BME280;46749;32.932;-117.130;2023-02-20T08:07:01;101622.19;;;15.85;49.44
60897;BME280;46749;32.932;-117.130;2023-02-20T08:09:27;101624.75;;;15.83;49.40
60897;BME280;46749;32.932;-117.130;2023-02-20T08:11:54;101610.75;;;15.83;49.47
60897;BME280;46749;32.932;-117.130;2023-02-20T08:14:21;101617.72;;;15.82;49.41
60897;BME280;46749;32.932;-117.130;2023-02-20T08:16:47;101615.97;;;15.81;49.42
60897;BME280;46749;32.932;-117.130;2023-02-20T08:19:13;101609.84;;;15.81;49.61
60897;BME280;46749;32.932;-117.130;2023-02-20T08:21:40;101635.13;;;15.80;49.49
60897;BME280;46749;32.932;-117.130;2023-02-20T08:24:06;101636.91;;;15.81;49.39
60897;BME280;46749;32.932;-117.130;2023-02-20T08:26:32;101632.47;;;15.79;49.40
60897;BME280;46749;32.932;-117.130;2023-02-20T08:29:02;101626.38;;;15.78;49.33
60897;BME280;46749;32.932;-117.130;2023-02-20T08:31:28;101638.56;;;15.78;49.37
60897;BME280;46749;32.932;-117.130;2023-02-20T08:33:54;101647.25;;;15.77;49.40
60897;BME280;46749;32.932;-117.130;2023-02-20T08:36:20;101658.59;;;15.77;49.38
60897;BME280;46749;32.932;-117.130;2023-02-20T08:38:46;101656.00;;;15.77;49.60
60897;BME280;46749;32.932;-117.130;2023-02-20T08:41:13;101673.41;;;15.75;49.44
60897;BME280;46749;32.932;-117.130;2023-02-20T08:43:40;101669.91;;;15.75;49.48
60897;BME280;46749;32.932;-117.130;2023-02-20T08:46:08;101682.09;;;15.74;49.42
60897;BME280;46749;32.932;-117.130;2023-02-20T08:48:35;101689.06;;;15.74;49.65
60897;BME280;46749;32.932;-117.130;2023-02-20T08:51:01;101691.69;;;15.74;49.25
60897;BME280;46749;32.932;-117.130;2023-02-20T08:53:27;101688.19;;;15.73;49.49
60897;BME280;46749;32.932;-117.130;2023-02-20T08:55:54;101681.19;;;15.72;49.25
60897;BME280;46749;32.932;-117.130;2023-02-20T08:58:21;101686.34;;;15.71;49.34
60897;BME280;46749;32.932;-117.130;2023-02-20T09:00:48;101686.34;;;15.71;49.43
60897;BME280;46749;32.932;-117.130;2023-02-20T09:03:15;101681.94;;;15.70;49.63
60897;BME280;46749;32.932;-117.130;2023-02-20T09:05:41;101678.44;;;15.69;49.59
60897;BME280;46749;32.932;-117.130;2023-02-20T09:08:08;101666.19;;;15.68;49.32
60897;BME280;46749;32.932;-117.130;2023-02-20T09:10:34;101680.13;;;15.67;49.39
60897;BME280;46749;32.932;-117.130;2023-02-20T09:13:01;101674.03;;;15.67;49.34
60897;BME280;46749;32.932;-117.130;2023-02-20T09:15:27;101673.13;;;15.66;49.49
60897;BME280;46749;32.932;-117.130;2023-02-20T09:17:54;101667.00;;;15.66;49.78
60897;BME280;46749;32.932;-117.130;2023-02-20T09:20:21;101675.75;;;15.66;49.35
60897;BME280;46749;32.932;-117.130;2023-02-20T09:22:48;101667.78;;;15.63;49.44
60897;BME280;46749;32.932;-117.130;2023-02-20T09:25:16;101664.31;;;15.64;49.37
60897;BME280;46749;32.932;-117.130;2023-02-20T09:27:43;101662.53;;;15.63;49.40
60897;BME280;46749;32.932;-117.130;2023-02-20T09:30:10;101678.25;;;15.63;49.69
60897;BME280;46749;32.932;-117.130;2023-02-20T09:32:41;101668.63;;;15.62;49.28
60897;BME280;46749;32.932;-117.130;2023-02-20T09:35:12;101672.94;;;15.61;49.38
60897;BME280;46749;32.932;-117.130;2023-02-20T09:37:40;101676.50;;;15.62;49.26
60897;BME280;46749;32.932;-117.130;2023-02-20T09:40:06;101669.44;;;15.61;49.56
60897;BME280;46749;32.932;-117.130;2023-02-20T09:46:29;101673.75;;;15.59;49.48
60897;BME280;46749;32.932;-117.130;2023-02-20T09:49:09;101679.00;;;15.59;49.58
60897;BME280;46749;32.932;-117.130;2023-02-20T09:51:41;101679.75;;;15.56;49.43
60897;BME280;46749;32.932;-117.130;2023-02-20T09:56:40;101671.00;;;15.54;49.55
60897;BME280;46749;32.932;-117.130;2023-02-20T09:59:14;101671.88;;;15.55;49.60
60897;BME280;46749;32.932;-117.130;2023-02-20T10:02:14;101670.94;;;15.53;49.50
60897;BME280;46749;32.932;-117.130;2023-02-20T10:04:44;101684.03;;;15.53;49.38
60897;BME280;46749;32.932;-117.130;2023-02-20T10:07:31;101683.97;;;15.51;49.41
60897;BME280;46749;32.932;-117.130;2023-02-20T10:09:59;101684.81;;;15.50;49.66
60897;BME280;46749;32.932;-117.130;2023-02-20T10:12:29;101686.53;;;15.50;49.14
60897;BME280;46749;32.932;-117.130;2023-02-20T10:20:35;101710.94;;;15.49;49.37
60897;BME280;46749;32.932;-117.130;2023-02-20T10:23:13;101709.19;;;15.48;49.46
60897;BME280;46749;32.932;-117.130;2023-02-20T10:25:46;101703.06;;;15.47;49.47
60897;BME280;46749;32.932;-117.130;2023-02-20T10:28:16;101702.16;;;15.47;49.25
60897;BME280;46749;32.932;-117.130;2023-02-20T10:31:09;101695.97;;;15.45;49.25
60897;BME280;46749;32.932;-117.130;2023-02-20T10:33:42;101698.66;;;15.46;49.42
60897;BME280;46749;32.932;-117.130;2023-02-20T10:36:24;101691.59;;;15.44;49.35
60897;BME280;46749;32.932;-117.130;2023-02-20T10:44:09;101708.97;;;15.42;49.33
60897;BME280;46749;32.932;-117.130;2023-02-20T10:52:01;101722.84;;;15.39;49.30
60897;BME280;46749;32.932;-117.130;2023-02-20T10:54:39;101714.09;;;15.38;49.67
60897;BME280;46749;32.932;-117.130;2023-02-20T10:57:27;101733.25;;;15.37;49.42
60897;BME280;46749;32.932;-117.130;2023-02-20T11:00:24;101733.25;;;15.37;49.36
60897;BME280;46749;32.932;-117.130;2023-02-20T11:03:22;101726.25;;;15.36;49.30
60897;BME280;46749;32.932;-117.130;2023-02-20T11:05:49;101725.38;;;15.36;49.41
60897;BME280;46749;32.932;-117.130;2023-02-20T11:08:16;101723.59;;;15.35;49.44
60897;BME280;46749;32.932;-117.130;2023-02-20T11:10:52;101720.91;;;15.33;49.04
60897;BME280;46749;32.932;-117.130;2023-02-20T11:13:23;101717.41;;;15.33;49.33
60897;BME280;46749;32.932;-117.130;2023-02-20T11:15:53;101706.94;;;15.33;49.17
60897;BME280;46749;32.932;-117.130;2023-02-20T11:18:29;101722.59;;;15.31;49.24
60897;BME280;46749;32.932;-117.130;2023-02-20T11:20:57;101716.47;;;15.31;49.24
60897;BME280;46749;32.932;-117.130;2023-02-20T11:23:42;101717.31;;;15.30;49.39
60897;BME280;46749;32.932;-117.130;2023-02-20T11:29:11;101715.53;;;15.29;49.41
60897;BME280;46749;32.932;-117.130;2023-02-20T11:31:40;101712.03;;;15.28;49.49
60897;BME280;46749;32.932;-117.130;2023-02-20T11:34:18;101713.69;;;15.26;49.37
60897;BME280;46749;32.932;-117.130;2023-02-20T11:36:51;101712.03;;;15.28;49.23
60897;BME280;46749;32.932;-117.130;2023-02-20T11:39:30;101718.03;;;15.26;49.08
60897;BME280;46749;32.932;-117.130;2023-02-20T11:42:19;101717.16;;;15.25;49.07
60897;BME280;46749;32.932;-117.130;2023-02-20T11:45:16;101713.66;;;15.25;49.41
60897;BME280;46749;32.932;-117.130;2023-02-20T11:47:43;101709.25;;;15.24;49.34
60897;BME280;46749;32.932;-117.130;2023-02-20T11:50:17;101707.50;;;15.23;49.33
60897;BME280;46749;32.932;-117.130;2023-02-20T11:52:57;101717.06;;;15.22;49.34
60897;BME280;46749;32.932;-117.130;2023-02-20T11:55:25;101715.31;;;15.21;49.39
60897;BME280;46749;32.932;-117.130;2023-02-20T11:57:52;101715.31;;;15.21;49.50
60897;BME280;46749;32.932;-117.130;2023-02-20T12:00:22;101710.84;;;15.19;49.59
60897;BME280;46749;32.932;-117.130;2023-02-20T12:02:54;101704.75;;;15.20;49.30
60897;BME280;46749;32.932;-117.130;2023-02-20T12:08:02;101705.56;;;15.17;49.10
60897;BME280;46749;32.932;-117.130;2023-02-20T12:12:54;101715.09;;;15.15;49.54
60897;BME280;46749;32.932;-117.130;2023-02-20T12:15:27;101718.53;;;15.14;49.18
60897;BME280;46749;32.932;-117.130;2023-02-20T12:20:47;101712.41;;;15.14;49.27
60897;BME280;46749;32.932;-117.130;2023-02-20T12:23:35;101717.63;;;15.14;49.28
60897;BME280;46749;32.932;-117.130;2023-02-20T12:26:22;101716.75;;;15.13;49.43
60897;BME280;46749;32.932;-117.130;2023-02-20T12:29:18;101711.50;;;15.13;49.31
60897;BME280;46749;32.932;-117.130;2023-02-20T12:40:30;101709.66;;;15.09;49.37
60897;BME280;46749;32.932;-117.130;2023-02-20T12:43:09;101715.78;;;15.09;49.22
60897;BME280;46749;32.932;-117.130;2023-02-20T12:46:05;101717.44;;;15.07;49.42
60897;BME280;46749;32.932;-117.130;2023-02-20T12:57:52;101709.44;;;15.03;49.23
60897;BME280;46749;32.932;-117.130;2023-02-20T13:00:32;101712.00;;;15.01;49.42
60897;BME280;46749;32.932;-117.130;2023-02-20T13:05:53;101703.25;;;15.01;49.67
60897;BME280;46749;32.932;-117.130;2023-02-20T13:08:28;101712.78;;;14.99;49.48
60897;BME280;46749;32.932;-117.130;2023-02-20T13:11:12;101711.00;;;14.98;49.36
60897;BME280;46749;32.932;-117.130;2023-02-20T13:14:00;101714.50;;;14.98;49.42
60897;BME280;46749;32.932;-117.130;2023-02-20T13:16:38;101717.13;;;14.98;49.50
60897;BME280;46749;32.932;-117.130;2023-02-20T13:22:25;101708.34;;;14.96;49.43
60897;BME280;46749;32.932;-117.130;2023-02-20T13:24:51;101703.94;;;14.95;49.63
60897;BME280;46749;32.932;-117.130;2023-02-20T13:27:35;101703.88;;;14.94;49.44
60897;BME280;46749;32.932;-117.130;2023-02-20T13:30:17;101705.66;;;14.95;49.52
60897;BME280;46749;32.932;-117.130;2023-02-20T13:32:45;101706.50;;;14.94;49.31
60897;BME280;46749;32.932;-117.130;2023-02-20T13:35:50;101712.56;;;14.93;49.36
60897;BME280;46749;32.932;-117.130;2023-02-20T13:38:19;101714.34;;;14.94;49.36
60897;BME280;46749;32.932;-117.130;2023-02-20T13:53:55;101689.91;;;14.93;49.72
60897;BME280;46749;32.932;-117.130;2023-02-20T13:56:48;101691.66;;;14.93;49.70
60897;BME280;46749;32.932;-117.130;2023-02-20T13:59:14;101691.59;;;14.91;49.75
60897;BME280;46749;32.932;-117.130;2023-02-20T14:01:55;101697.69;;;14.90;49.52
60897;BME280;46749;32.932;-117.130;2023-02-20T14:04:22;101694.97;;;14.89;49.59
60897;BME280;46749;32.932;-117.130;2023-02-20T14:06:50;101701.09;;;14.89;49.63
60897;BME280;46749;32.932;-117.130;2023-02-20T14:09:20;101716.75;;;14.88;49.60
60897;BME280;46749;32.932;-117.130;2023-02-20T14:11:49;101724.56;;;14.86;49.68
60897;BME280;46749;32.932;-117.130;2023-02-20T14:14:29;101714.97;;;14.87;49.61
60897;BME280;46749;32.932;-117.130;2023-02-20T14:17:14;101698.34;;;14.84;49.46
60897;BME280;46749;32.932;-117.130;2023-02-20T14:19:42;101700.13;;;14.86;49.48
60897;BME280;46749;32.932;-117.130;2023-02-20T14:24:40;101721.06;;;14.86;49.55
60897;BME280;46749;32.932;-117.130;2023-02-20T14:27:29;101707.97;;;14.86;49.43